sensor_id;sensor_type;location;lat;lon;timestamp;pressure;altitude;pressure_sealevel;temperature
76347;BMP280;65171;48.378;10.010;2022-12-11T00:02:08;95278.13;;;-1.73
76347;BMP280;65171;48.378;10.010;2022-12-11T00:04:34;95297.44;;;-1.60
76347;BMP280;65171;48.378;10.010;2022-12-11T00:06:59;95315.88;;;-1.57
76347;BMP280;65171;48.378;10.010;2022-12-11T00:09:24;95315.59;;;-1.72
76347;BMP280;65171;48.378;10.010;2022-12-11T00:11:49;95308.09;;;-1.71
76347;BMP280;65171;48.378;10.010;2022-12-11T00:14:15;95325.22;;;-1.64
76347;BMP280;65171;48.378;10.010;2022-12-11T00:16:40;95318.59;;;-1.66
76347;BMP280;65171;48.378;10.010;2022-12-11T00:19:06;95301.22;;;-1.67
76347;BMP280;65171;48.378;10.010;2022-12-11T00:21:32;95302.00;;;-1.66
76347;BMP280;65171;48.378;10.010;2022-12-11T00:23:58;95298.56;;;-1.70
76347;BMP280;65171;48.378;10.010;2022-12-11T00:26:23;95298.97;;;-1.81
76347;BMP280;65171;48.378;10.010;2022-12-11T00:28:51;95302.88;;;-1.69
76347;BMP280;65171;48.378;10.010;2022-12-11T00:31:18;95300.91;;;-1.69
76347;BMP280;65171;48.378;10.010;2022-12-11T00:33:44;95294.66;;;-1.60
76347;BMP280;65171;48.378;10.010;2022-12-11T00:36:15;95307.78;;;-1.73
76347;BMP280;65171;48.378;10.010;2022-12-11T00:38:41;95303.97;;;-1.67
76347;BMP280;65171;48.378;10.010;2022-12-11T00:41:06;95311.03;;;-1.66
76347;BMP280;65171;48.378;10.010;2022-12-11T00:43:31;95296.00;;;-1.65
76347;BMP280;65171;48.378;10.010;2022-12-11T00:45:57;95301.88;;;-1.63
76347;BMP280;65171;48.378;10.010;2022-12-11T00:48:22;95304.06;;;-1.58
76347;BMP280;65171;48.378;10.010;2022-12-11T00:50:47;95307.84;;;-1.64
76347;BMP280;65171;48.378;10.010;2022-12-11T00:53:12;95304.53;;;-1.72
76347;BMP280;65171;48.378;10.010;2022-12-11T00:55:40;95294.28;;;-1.71
76347;BMP280;65171;48.378;10.010;2022-12-11T00:58:06;95301.66;;;-1.68
76347;BMP280;65171;48.378;10.010;2022-12-11T01:00:31;95299.41;;;-1.82
76347;BMP280;65171;48.378;10.010;2022-12-11T01:02:57;95313.31;;;-1.73
76347;BMP280;65171;48.378;10.010;2022-12-11T01:05:22;95315.72;;;-1.75
76347;BMP280;65171;48.378;10.010;2022-12-11T01:07:47;95312.13;;;-1.63
76347;BMP280;65171;48.378;10.010;2022-12-11T01:10:13;95313.75;;;-1.75
76347;BMP280;65171;48.378;10.010;2022-12-11T01:12:39;95318.50;;;-1.75
76347;BMP280;65171;48.378;10.010;2022-12-11T01:15:04;95325.09;;;-1.60
76347;BMP280;65171;48.378;10.010;2022-12-11T01:17:29;95320.38;;;-1.72
76347;BMP280;65171;48.378;10.010;2022-12-11T01:19:55;95325.25;;;-1.55
76347;BMP280;65171;48.378;10.010;2022-12-11T01:22:20;95324.50;;;-1.55
76347;BMP280;65171;48.378;10.010;2022-12-11T01:24:45;95333.41;;;-1.73
76347;BMP280;65171;48.378;10.010;2022-12-11T01:27:10;95329.22;;;-1.77
76347;BMP280;65171;48.378;10.010;2022-12-11T01:29:36;95339.34;;;-1.62
76347;BMP280;65171;48.378;10.010;2022-12-11T01:32:01;95339.34;;;-1.62
76347;BMP280;65171;48.378;10.010;2022-12-11T01:34:30;95343.91;;;-1.68
76347;BMP280;65171;48.378;10.010;2022-12-11T01:36:55;95324.09;;;-1.66
76347;BMP280;65171;48.378;10.010;2022-12-11T01:39:20;95338.47;;;-1.59
76347;BMP280;65171;48.378;10.010;2022-12-11T01:41:45;95335.34;;;-1.61
76347;BMP280;65171;48.378;10.010;2022-12-11T01:46:39;95331.88;;;-1.74
76347;BMP280;65171;48.378;10.010;2022-12-11T01:49:07;95337.53;;;-1.77
76347;BMP280;65171;48.378;10.010;2022-12-11T01:51:40;95316.28;;;-1.80
76347;BMP280;65171;48.378;10.010;2022-12-11T01:54:08;95328.38;;;-1.53
76347;BMP280;65171;48.378;10.010;2022-12-11T01:56:35;95325.97;;;-1.63
76347;BMP280;65171;48.378;10.010;2022-12-11T01:59:04;95339.78;;;-1.63
76347;BMP280;65171;48.378;10.010;2022-12-11T02:01:39;95324.59;;;-1.80
76347;BMP280;65171;48.378;10.010;2022-12-11T02:04:06;95328.31;;;-1.74
76347;BMP280;65171;48.378;10.010;2022-12-11T02:06:42;95325.41;;;-1.92
76347;BMP280;65171;48.378;10.010;2022-12-11T02:09:16;95343.78;;;-1.98
76347;BMP280;65171;48.378;10.010;2022-12-11T02:11:56;95346.69;;;-1.80
76347;BMP280;65171;48.378;10.010;2022-12-11T02:14:38;95340.88;;;-1.95
76347;BMP280;65171;48.378;10.010;2022-12-11T02:17:14;95341.75;;;-1.85
76347;BMP280;65171;48.378;10.010;2022-12-11T02:19:48;95313.94;;;-2.03
76347;BMP280;65171;48.378;10.010;2022-12-11T02:25:31;95328.03;;;-1.89
76347;BMP280;65171;48.378;10.010;2022-12-11T02:30:27;95327.34;;;-1.80
76347;BMP280;65171;48.378;10.010;2022-12-11T02:32:57;95343.13;;;-1.68
76347;BMP280;65171;48.378;10.010;2022-12-11T02:35:37;95348.38;;;-1.83
76347;BMP280;65171;48.378;10.010;2022-12-11T02:38:08;95351.94;;;-1.95
76347;BMP280;65171;48.378;10.010;2022-12-11T02:40:37;95354.69;;;-1.82
76347;BMP280;65171;48.378;10.010;2022-12-11T02:43:06;95357.97;;;-1.75
76347;BMP280;65171;48.378;10.010;2022-12-11T02:45:33;95348.38;;;-1.83
76347;BMP280;65171;48.378;10.010;2022-12-11T02:48:00;95345.16;;;-1.81
76347;BMP280;65171;48.378;10.010;2022-12-11T02:50:27;95320.00;;;-1.96
76347;BMP280;65171;48.378;10.010;2022-12-11T02:52:54;95313.69;;;-1.96
76347;BMP280;65171;48.378;10.010;2022-12-11T02:55:22;95351.09;;;-1.70
76347;BMP280;65171;48.378;10.010;2022-12-11T02:57:57;95361.06;;;-1.73
76347;BMP280;65171;48.378;10.010;2022-12-11T03:00:23;95344.50;;;-1.85
76347;BMP280;65171;48.378;10.010;2022-12-11T03:02:49;95354.38;;;-1.84
76347;BMP280;65171;48.378;10.010;2022-12-11T03:05:14;95342.94;;;-1.74
76347;BMP280;65171;48.378;10.010;2022-12-11T03:07:41;95352.00;;;-1.73
76347;BMP280;65171;48.378;10.010;2022-12-11T03:10:09;95351.06;;;-1.92
76347;BMP280;65171;48.378;10.010;2022-12-11T03:12:38;95343.88;;;-2.02
76347;BMP280;65171;48.378;10.010;2022-12-11T03:15:07;95348.59;;;-1.90
76347;BMP280;65171;48.378;10.010;2022-12-11T03:23:08;95346.41;;;-1.95
76347;BMP280;65171;48.378;10.010;2022-12-11T03:25:48;95327.63;;;-2.00
76347;BMP280;65171;48.378;10.010;2022-12-11T03:28:19;95344.63;;;-1.89
76347;BMP280;65171;48.378;10.010;2022-12-11T03:30:49;95348.97;;;-2.00
76347;BMP280;65171;48.378;10.010;2022-12-11T03:33:23;95354.06;;;-1.99
76347;BMP280;65171;48.378;10.010;2022-12-11T03:35:54;95326.78;;;-2.22
76347;BMP280;65171;48.378;10.010;2022-12-11T03:38:23;95362.66;;;-1.97
76347;BMP280;65171;48.378;10.010;2022-12-11T03:40:54;95362.34;;;-1.99
76347;BMP280;65171;48.378;10.010;2022-12-11T03:43:20;95365.31;;;-1.93
76347;BMP280;65171;48.378;10.010;2022-12-11T03:45:48;95350.53;;;-1.99
76347;BMP280;65171;48.378;10.010;2022-12-11T03:48:15;95349.19;;;-1.95
76347;BMP280;65171;48.378;10.010;2022-12-11T03:50:41;95360.22;;;-1.95
76347;BMP280;65171;48.378;10.010;2022-12-11T03:53:07;95348.72;;;-1.93
76347;BMP280;65171;48.378;10.010;2022-12-11T03:55:35;95346.56;;;-2.11
76347;BMP280;65171;48.378;10.010;2022-12-11T03:58:01;95359.81;;;-2.06
76347;BMP280;65171;48.378;10.010;2022-12-11T04:00:27;95357.47;;;-1.95
76347;BMP280;65171;48.378;10.010;2022-12-11T04:02:53;95349.59;;;-1.96
76347;BMP280;65171;48.378;10.010;2022-12-11T04:05:18;95318.03;;;-1.95
76347;BMP280;65171;48.378;10.010;2022-12-11T04:07:43;95338.00;;;-1.91
76347;BMP280;65171;48.378;10.010;2022-12-11T04:10:08;95349.28;;;-1.86
76347;BMP280;65171;48.378;10.010;2022-12-11T04:12:34;95354.47;;;-1.88
76347;BMP280;65171;48.378;10.010;2022-12-11T04:14:59;95353.00;;;-1.80
76347;BMP280;65171;48.378;10.010;2022-12-11T04:17:24;95354.78;;;-1.73
76347;BMP280;65171;48.378;10.010;2022-12-11T04:19:49;95347.84;;;-1.90
76347;BMP280;65171;48.378;10.010;2022-12-11T04:22:16;95350.16;;;-1.89
76347;BMP280;65171;48.378;10.010;2022-12-11T04:24:42;95353.56;;;-1.85
76347;BMP280;65171;48.378;10.010;2022-12-11T04:27:07;95350.50;;;-1.87
76347;BMP280;65171;48.378;10.010;2022-12-11T04:29:32;95345.22;;;-2.06
76347;BMP280;65171;48.378;10.010;2022-12-11T04:31:57;95348.31;;;-2.04
76347;BMP280;65171;48.378;10.010;2022-12-11T04:34:23;95348.06;;;-1.97
76347;BMP280;65171;48.378;10.010;2022-12-11T04:36:48;95338.56;;;-1.96
76347;BMP280;65171;48.378;10.010;2022-12-11T04:39:13;95348.56;;;-2.11
76347;BMP280;65171;48.378;10.010;2022-12-11T04:41:39;95328.56;;;-2.28
76347;BMP280;65171;48.378;10.010;2022-12-11T04:44:04;95333.78;;;-2.42
76347;BMP280;65171;48.378;10.010;2022-12-11T04:46:30;95352.44;;;-2.34
76347;BMP280;65171;48.378;10.010;2022-12-11T04:48:55;95350.16;;;-2.35
76347;BMP280;65171;48.378;10.010;2022-12-11T04:51:20;95355.88;;;-2.42
76347;BMP280;65171;48.378;10.010;2022-12-11T04:53:45;95354.00;;;-2.45
76347;BMP280;65171;48.378;10.010;2022-12-11T04:56:13;95353.00;;;-2.51
76347;BMP280;65171;48.378;10.010;2022-12-11T04:58:40;95347.72;;;-2.58
76347;BMP280;65171;48.378;10.010;2022-12-11T05:01:17;95352.56;;;-2.62
76347;BMP280;65171;48.378;10.010;2022-12-11T05:03:42;95340.53;;;-2.68
76347;BMP280;65171;48.378;10.010;2022-12-11T05:06:09;95334.47;;;-2.76
76347;BMP280;65171;48.378;10.010;2022-12-11T05:08:36;95344.72;;;-2.76
76347;BMP280;65171;48.378;10.010;2022-12-11T05:11:04;95340.53;;;-2.81
76347;BMP280;65171;48.378;10.010;2022-12-11T05:13:30;95343.50;;;-2.88
76347;BMP280;65171;48.378;10.010;2022-12-11T05:15:56;95348.38;;;-2.79
76347;BMP280;65171;48.378;10.010;2022-12-11T05:18:22;95343.53;;;-2.75
76347;BMP280;65171;48.378;10.010;2022-12-11T05:20:55;95360.56;;;-3.05
76347;BMP280;65171;48.378;10.010;2022-12-11T05:23:20;95350.53;;;-3.12
76347;BMP280;65171;48.378;10.010;2022-12-11T05:26:00;95332.63;;;-3.20
76347;BMP280;65171;48.378;10.010;2022-12-11T05:28:27;95339.50;;;-3.12
76347;BMP280;65171;48.378;10.010;2022-12-11T05:30:55;95322.69;;;-3.30
76347;BMP280;65171;48.378;10.010;2022-12-11T05:33:20;95331.34;;;-3.15
76347;BMP280;65171;48.378;10.010;2022-12-11T05:35:46;95323.78;;;-3.27
76347;BMP280;65171;48.378;10.010;2022-12-11T05:38:12;95337.94;;;-3.25
76347;BMP280;65171;48.378;10.010;2022-12-11T05:40:37;95337.09;;;-3.38
76347;BMP280;65171;48.378;10.010;2022-12-11T05:43:02;95324.75;;;-3.46
76347;BMP280;65171;48.378;10.010;2022-12-11T05:45:27;95333.91;;;-3.49
76347;BMP280;65171;48.378;10.010;2022-12-11T05:47:52;95333.50;;;-3.35
76347;BMP280;65171;48.378;10.010;2022-12-11T05:50:18;95323.63;;;-3.49
76347;BMP280;65171;48.378;10.010;2022-12-11T05:52:43;95322.72;;;-3.58
76347;BMP280;65171;48.378;10.010;2022-12-11T05:55:08;95340.16;;;-3.49
76347;BMP280;65171;48.378;10.010;2022-12-11T05:57:33;95331.94;;;-3.65
76347;BMP280;65171;48.378;10.010;2022-12-11T05:59:58;95332.16;;;-3.72
76347;BMP280;65171;48.378;10.010;2022-12-11T06:02:24;95343.72;;;-3.93
76347;BMP280;65171;48.378;10.010;2022-12-11T06:04:49;95336.41;;;-3.83
76347;BMP280;65171;48.378;10.010;2022-12-11T06:07:14;95338.59;;;-3.91
76347;BMP280;65171;48.378;10.010;2022-12-11T06:09:39;95308.50;;;-4.14
76347;BMP280;65171;48.378;10.010;2022-12-11T06:12:04;95344.19;;;-3.94
76347;BMP280;65171;48.378;10.010;2022-12-11T06:14:30;95335.81;;;-3.91
76347;BMP280;65171;48.378;10.010;2022-12-11T06:16:55;95321.66;;;-3.77
76347;BMP280;65171;48.378;10.010;2022-12-11T06:19:20;95321.22;;;-3.75
76347;BMP280;65171;48.378;10.010;2022-12-11T06:21:45;95310.78;;;-3.96
76347;BMP280;65171;48.378;10.010;2022-12-11T06:24:11;95316.56;;;-3.78
76347;BMP280;65171;48.378;10.010;2022-12-11T06:26:36;95317.47;;;-3.81
76347;BMP280;65171;48.378;10.010;2022-12-11T06:29:02;95311.41;;;-3.76
76347;BMP280;65171;48.378;10.010;2022-12-11T06:31:27;95315.34;;;-3.90
76347;BMP280;65171;48.378;10.010;2022-12-11T06:33:52;95315.13;;;-3.83
76347;BMP280;65171;48.378;10.010;2022-12-11T06:36:20;95311.56;;;-3.96
76347;BMP280;65171;48.378;10.010;2022-12-11T06:38:46;95312.59;;;-4.06
76347;BMP280;65171;48.378;10.010;2022-12-11T06:41:12;95311.66;;;-3.99
76347;BMP280;65171;48.378;10.010;2022-12-11T06:43:38;95299.97;;;-4.19
76347;BMP280;65171;48.378;10.010;2022-12-11T06:46:09;95311.13;;;-3.94
76347;BMP280;65171;48.378;10.010;2022-12-11T06:48:34;95306.00;;;-4.24
76347;BMP280;65171;48.378;10.010;2022-12-11T06:51:04;95316.69;;;-4.26
76347;BMP280;65171;48.378;10.010;2022-12-11T06:53:30;95302.13;;;-4.27
76347;BMP280;65171;48.378;10.010;2022-12-11T06:55:55;95311.97;;;-4.26
76347;BMP280;65171;48.378;10.010;2022-12-11T06:58:20;95302.31;;;-4.34
76347;BMP280;65171;48.378;10.010;2022-12-11T07:00:45;95314.88;;;-4.17
76347;BMP280;65171;48.378;10.010;2022-12-11T07:03:10;95307.56;;;-4.23
76347;BMP280;65171;48.378;10.010;2022-12-11T07:05:36;95297.59;;;-4.33
76347;BMP280;65171;48.378;10.010;2022-12-11T07:08:01;95298.00;;;-4.19
76347;BMP280;65171;48.378;10.010;2022-12-11T07:10:26;95300.66;;;-4.15
76347;BMP280;65171;48.378;10.010;2022-12-11T07:12:52;95290.72;;;-4.41
76347;BMP280;65171;48.378;10.010;2022-12-11T07:15:17;95303.81;;;-4.29
76347;BMP280;65171;48.378;10.010;2022-12-11T07:17:42;95304.75;;;-4.36
76347;BMP280;65171;48.378;10.010;2022-12-11T07:20:08;95311.97;;;-4.26
76347;BMP280;65171;48.378;10.010;2022-12-11T07:22:33;95314.81;;;-4.29
76347;BMP280;65171;48.378;10.010;2022-12-11T07:24:58;95311.28;;;-4.30
76347;BMP280;65171;48.378;10.010;2022-12-11T07:27:24;95314.78;;;-4.13
76347;BMP280;65171;48.378;10.010;2022-12-11T07:29:49;95312.47;;;-4.15
76347;BMP280;65171;48.378;10.010;2022-12-11T07:32:15;95309.88;;;-4.22
76347;BMP280;65171;48.378;10.010;2022-12-11T07:34:40;95312.53;;;-4.18
76347;BMP280;65171;48.378;10.010;2022-12-11T07:37:05;95293.63;;;-4.16
76347;BMP280;65171;48.378;10.010;2022-12-11T07:39:30;95309.72;;;-4.15
76347;BMP280;65171;48.378;10.010;2022-12-11T07:41:56;95308.59;;;-4.17
76347;BMP280;65171;48.378;10.010;2022-12-11T07:44:21;95301.25;;;-4.08
76347;BMP280;65171;48.378;10.010;2022-12-11T07:46:46;95309.44;;;-4.20
76347;BMP280;65171;48.378;10.010;2022-12-11T07:49:11;95303.63;;;-4.22
76347;BMP280;65171;48.378;10.010;2022-12-11T07:51:37;95312.28;;;-4.08
76347;BMP280;65171;48.378;10.010;2022-12-11T07:54:06;95296.72;;;-4.30
76347;BMP280;65171;48.378;10.010;2022-12-11T07:56:32;95315.66;;;-4.16
76347;BMP280;65171;48.378;10.010;2022-12-11T07:58:58;95325.78;;;-4.13
76347;BMP280;65171;48.378;10.010;2022-12-11T08:01:25;95334.84;;;-4.13
76347;BMP280;65171;48.378;10.010;2022-12-11T08:03:51;95321.16;;;-4.16
76347;BMP280;65171;48.378;10.010;2022-12-11T08:06:17;95326.28;;;-4.02
76347;BMP280;65171;48.378;10.010;2022-12-11T08:08:42;95330.56;;;-4.01
76347;BMP280;65171;48.378;10.010;2022-12-11T08:11:10;95331.19;;;-4.10
76347;BMP280;65171;48.378;10.010;2022-12-11T08:13:37;95335.06;;;-4.07
76347;BMP280;65171;48.378;10.010;2022-12-11T08:16:07;95330.34;;;-4.07
76347;BMP280;65171;48.378;10.010;2022-12-11T08:18:33;95324.22;;;-3.98
76347;BMP280;65171;48.378;10.010;2022-12-11T08:21:25;95328.91;;;-3.83
76347;BMP280;65171;48.378;10.010;2022-12-11T08:23:50;95353.09;;;-3.74
76347;BMP280;65171;48.378;10.010;2022-12-11T08:26:19;95345.34;;;-3.79
76347;BMP280;65171;48.378;10.010;2022-12-11T08:28:45;95356.94;;;-3.72
76347;BMP280;65171;48.378;10.010;2022-12-11T08:31:12;95336.16;;;-3.89
76347;BMP280;65171;48.378;10.010;2022-12-11T08:33:39;95332.81;;;-3.96
76347;BMP280;65171;48.378;10.010;2022-12-11T08:36:05;95350.09;;;-3.80
76347;BMP280;65171;48.378;10.010;2022-12-11T08:38:31;95346.34;;;-3.73
76347;BMP280;65171;48.378;10.010;2022-12-11T08:40:56;95350.31;;;-3.74
76347;BMP280;65171;48.378;10.010;2022-12-11T08:43:22;95353.03;;;-3.58
76347;BMP280;65171;48.378;10.010;2022-12-11T08:45:47;95341.19;;;-3.43
76347;BMP280;65171;48.378;10.010;2022-12-11T08:48:13;95349.97;;;-3.60
76347;BMP280;65171;48.378;10.010;2022-12-11T08:50:38;95351.59;;;-3.63
76347;BMP280;65171;48.378;10.010;2022-12-11T08:53:03;95337.94;;;-3.54
76347;BMP280;65171;48.378;10.010;2022-12-11T08:55:29;95350.44;;;-3.49
76347;BMP280;65171;48.378;10.010;2022-12-11T08:57:55;95352.25;;;-3.30
76347;BMP280;65171;48.378;10.010;2022-12-11T09:00:20;95352.00;;;-3.36
76347;BMP280;65171;48.378;10.010;2022-12-11T09:02:46;95352.38;;;-3.21
76347;BMP280;65171;48.378;10.010;2022-12-11T09:05:11;95345.91;;;-3.02
76347;BMP280;65171;48.378;10.010;2022-12-11T09:07:37;95348.25;;;-3.01
76347;BMP280;65171;48.378;10.010;2022-12-11T09:10:06;95350.44;;;-3.08
76347;BMP280;65171;48.378;10.010;2022-12-11T09:12:33;95354.09;;;-2.99
76347;BMP280;65171;48.378;10.010;2022-12-11T09:14:58;95350.88;;;-3.10
76347;BMP280;65171;48.378;10.010;2022-12-11T09:17:24;95346.59;;;-2.86
76347;BMP280;65171;48.378;10.010;2022-12-11T09:19:49;95346.16;;;-2.84
76347;BMP280;65171;48.378;10.010;2022-12-11T09:22:14;95345.91;;;-3.02
76347;BMP280;65171;48.378;10.010;2022-12-11T09:24:39;95328.72;;;-2.81
76347;BMP280;65171;48.378;10.010;2022-12-11T09:27:05;95347.69;;;-2.83
76347;BMP280;65171;48.378;10.010;2022-12-11T09:29:31;95350.00;;;-2.94
76347;BMP280;65171;48.378;10.010;2022-12-11T09:31:56;95341.84;;;-2.98
76347;BMP280;65171;48.378;10.010;2022-12-11T09:34:21;95343.72;;;-2.70
76347;BMP280;65171;48.378;10.010;2022-12-11T09:36:47;95334.78;;;-2.49
76347;BMP280;65171;48.378;10.010;2022-12-11T09:39:14;95338.00;;;-2.50
76347;BMP280;65171;48.378;10.010;2022-12-11T09:44:49;95332.00;;;-2.36
76347;BMP280;65171;48.378;10.010;2022-12-11T09:47:32;95327.56;;;-2.21
76347;BMP280;65171;48.378;10.010;2022-12-11T09:50:28;95322.03;;;-2.21
76347;BMP280;65171;48.378;10.010;2022-12-11T09:53:20;95320.94;;;-2.24
76347;BMP280;65171;48.378;10.010;2022-12-11T09:55:59;95317.31;;;-2.21
76347;BMP280;65171;48.378;10.010;2022-12-11T09:58:31;95318.09;;;-2.33
76347;BMP280;65171;48.378;10.010;2022-12-11T10:10:14;95310.53;;;-2.07
76347;BMP280;65171;48.378;10.010;2022-12-11T10:12:50;95314.50;;;-2.08
76347;BMP280;65171;48.378;10.010;2022-12-11T10:15:38;95312.94;;;-1.97
76347;BMP280;65171;48.378;10.010;2022-12-11T10:18:10;95312.13;;;-1.85
76347;BMP280;65171;48.378;10.010;2022-12-11T10:20:36;95301.06;;;-1.85
76347;BMP280;65171;48.378;10.010;2022-12-11T10:23:02;95298.03;;;-1.99
76347;BMP280;65171;48.378;10.010;2022-12-11T10:25:46;95294.59;;;-1.69
76347;BMP280;65171;48.378;10.010;2022-12-11T10:28:15;95295.09;;;-1.40
76347;BMP280;65171;48.378;10.010;2022-12-11T10:31:09;95295.28;;;-1.56
76347;BMP280;65171;48.378;10.010;2022-12-11T10:36:27;95281.28;;;-1.40
76347;BMP280;65171;48.378;10.010;2022-12-11T10:38:52;95283.66;;;-1.30
76347;BMP280;65171;48.378;10.010;2022-12-11T10:41:23;95272.59;;;-1.51
76347;BMP280;65171;48.378;10.010;2022-12-11T10:43:54;95219.44;;;-1.55
76347;BMP280;65171;48.378;10.010;2022-12-11T10:46:24;95276.88;;;-1.07
76347;BMP280;65171;48.378;10.010;2022-12-11T10:48:53;95274.16;;;-1.50
76347;BMP280;65171;48.378;10.010;2022-12-11T10:51:21;95274.97;;;-1.62
76347;BMP280;65171;48.378;10.010;2022-12-11T10:53:56;95262.06;;;-1.65
76347;BMP280;65171;48.378;10.010;2022-12-11T10:56:26;95266.44;;;-1.55
76347;BMP280;65171;48.378;10.010;2022-12-11T10:58:52;95252.16;;;-1.32
76347;BMP280;65171;48.378;10.010;2022-12-11T11:01:22;95259.72;;;-1.45
76347;BMP280;65171;48.378;10.010;2022-12-11T11:04:01;95260.56;;;-1.57
76347;BMP280;65171;48.378;10.010;2022-12-11T11:06:28;95237.53;;;-1.02
76347;BMP280;65171;48.378;10.010;2022-12-11T11:08:56;95234.03;;;-0.94
76347;BMP280;65171;48.378;10.010;2022-12-11T11:14:19;95233.41;;;-0.98
76347;BMP280;65171;48.378;10.010;2022-12-11T11:16:50;95238.25;;;-1.11
76347;BMP280;65171;48.378;10.010;2022-12-11T11:21:50;95234.56;;;-0.77
76347;BMP280;65171;48.378;10.010;2022-12-11T11:24:46;95226.84;;;-0.82
76347;BMP280;65171;48.378;10.010;2022-12-11T11:27:40;95207.16;;;-0.93
76347;BMP280;65171;48.378;10.010;2022-12-11T11:30:26;95212.84;;;-1.27
76347;BMP280;65171;48.378;10.010;2022-12-11T11:32:57;95214.25;;;-1.14
76347;BMP280;65171;48.378;10.010;2022-12-11T11:35:25;95221.31;;;-1.22
76347;BMP280;65171;48.378;10.010;2022-12-11T11:40:42;95221.94;;;-0.87
76347;BMP280;65171;48.378;10.010;2022-12-11T11:43:29;95200.72;;;-0.72
76347;BMP280;65171;48.378;10.010;2022-12-11T11:46:01;95182.47;;;-0.61
76347;BMP280;65171;48.378;10.010;2022-12-11T11:48:43;95207.22;;;-0.66
76347;BMP280;65171;48.378;10.010;2022-12-11T11:53:38;95204.63;;;-1.09
76347;BMP280;65171;48.378;10.010;2022-12-11T11:56:30;95200.25;;;-0.80
76347;BMP280;65171;48.378;10.010;2022-12-11T12:01:26;95198.63;;;-0.50
76347;BMP280;65171;48.378;10.010;2022-12-11T12:03:51;95193.75;;;-0.86
76347;BMP280;65171;48.378;10.010;2022-12-11T12:06:39;95183.94;;;-0.87
76347;BMP280;65171;48.378;10.010;2022-12-11T12:09:15;95204.69;;;-1.22
76347;BMP280;65171;48.378;10.010;2022-12-11T12:12:48;95190.09;;;-0.74
76347;BMP280;65171;48.378;10.010;2022-12-11T12:17:31;95193.25;;;-0.54
76347;BMP280;65171;48.378;10.010;2022-12-11T12:20:12;95194.41;;;-0.82
76347;BMP280;65171;48.378;10.010;2022-12-11T12:25:40;95194.44;;;-0.64
76347;BMP280;65171;48.378;10.010;2022-12-11T12:34:01;95187.53;;;-0.68
76347;BMP280;65171;48.378;10.010;2022-12-11T12:45:08;95169.59;;;-0.19
76347;BMP280;65171;48.378;10.010;2022-12-11T12:47:38;95166.47;;;-0.48
76347;BMP280;65171;48.378;10.010;2022-12-11T12:50:11;95181.13;;;-0.21
76347;BMP280;65171;48.378;10.010;2022-12-11T12:52:39;95177.53;;;-0.57
76347;BMP280;65171;48.378;10.010;2022-12-11T12:57:37;95178.66;;;-0.45
76347;BMP280;65171;48.378;10.010;2022-12-11T13:00:05;95168.16;;;-0.50
76347;BMP280;65171;48.378;10.010;2022-12-11T13:02:31;95176.06;;;-0.22
76347;BMP280;65171;48.378;10.010;2022-12-11T13:04:59;95175.25;;;-0.49
76347;BMP280;65171;48.378;10.010;2022-12-11T13:07:28;95179.88;;;-0.38
76347;BMP280;65171;48.378;10.010;2022-12-11T13:10:23;95186.97;;;-0.45
76347;BMP280;65171;48.378;10.010;2022-12-11T13:12:49;95186.06;;;-0.42
76347;BMP280;65171;48.378;10.010;2022-12-11T13:15:37;95186.97;;;-0.36
76347;BMP280;65171;48.378;10.010;2022-12-11T13:18:05;95189.75;;;-0.28
76347;BMP280;65171;48.378;10.010;2022-12-11T13:20:49;95172.69;;;-0.17
76347;BMP280;65171;48.378;10.010;2022-12-11T13:23:19;95182.38;;;-0.13
76347;BMP280;65171;48.378;10.010;2022-12-11T13:25:52;95177.44;;;-0.27
76347;BMP280;65171;48.378;10.010;2022-12-11T13:33:47;95170.06;;;-0.12
76347;BMP280;65171;48.378;10.010;2022-12-11T13:38:48;95156.19;;;-0.47
76347;BMP280;65171;48.378;10.010;2022-12-11T13:41:14;95171.81;;;-0.71
76347;BMP280;65171;48.378;10.010;2022-12-11T13:43:45;95162.63;;;-0.50
76347;BMP280;65171;48.378;10.010;2022-12-11T13:46:12;95166.94;;;-0.32
76347;BMP280;65171;48.378;10.010;2022-12-11T13:48:43;95158.31;;;-0.60
76347;BMP280;65171;48.378;10.010;2022-12-11T13:51:19;95169.25;;;-0.48
76347;BMP280;65171;48.378;10.010;2022-12-11T13:53:45;95161.22;;;-0.64
76347;BMP280;65171;48.378;10.010;2022-12-11T13:56:19;95168.03;;;-0.56
76347;BMP280;65171;48.378;10.010;2022-12-11T13:58:45;95165.56;;;-0.45
76347;BMP280;65171;48.378;10.010;2022-12-11T14:01:23;95173.44;;;0.01
76347;BMP280;65171;48.378;10.010;2022-12-11T14:04:06;95169.91;;;-0.08
76347;BMP280;65171;48.378;10.010;2022-12-11T14:06:33;95175.13;;;-0.01
76347;BMP280;65171;48.378;10.010;2022-12-11T14:09:00;95181.91;;;0.25
76347;BMP280;65171;48.378;10.010;2022-12-11T14:11:39;95176.66;;;-0.27
76347;BMP280;65171;48.378;10.010;2022-12-11T14:14:17;95158.19;;;-0.12
76347;BMP280;65171;48.378;10.010;2022-12-11T14:16:46;95166.06;;;-0.02
76347;BMP280;65171;48.378;10.010;2022-12-11T14:19:14;95185.13;;;-0.04
76347;BMP280;65171;48.378;10.010;2022-12-11T14:21:40;95175.06;;;-0.64
76347;BMP280;65171;48.378;10.010;2022-12-11T14:24:11;95183.44;;;-0.28
76347;BMP280;65171;48.378;10.010;2022-12-11T14:26:36;95166.34;;;-0.27
76347;BMP280;65171;48.378;10.010;2022-12-11T14:29:02;95176.19;;;-0.43
76347;BMP280;65171;48.378;10.010;2022-12-11T14:31:35;95176.06;;;-0.22
76347;BMP280;65171;48.378;10.010;2022-12-11T14:34:16;95178.94;;;-0.43
76347;BMP280;65171;48.378;10.010;2022-12-11T14:36:43;95155.09;;;-0.50
76347;BMP280;65171;48.378;10.010;2022-12-11T14:42:23;95177.53;;;-0.57
76347;BMP280;65171;48.378;10.010;2022-12-11T14:44:24;95171.22;;;-0.75
76347;BMP280;65171;48.378;10.010;2022-12-11T14:46:59;95173.59;;;-0.95
76347;BMP280;65171;48.378;10.010;2022-12-11T14:49:46;95190.34;;;-0.99
76347;BMP280;65171;48.378;10.010;2022-12-11T14:52:27;95184.91;;;-1.11
76347;BMP280;65171;48.378;10.010;2022-12-11T14:54:59;95191.31;;;-1.23
76347;BMP280;65171;48.378;10.010;2022-12-11T14:57:27;95201.16;;;-1.22
76347;BMP280;65171;48.378;10.010;2022-12-11T14:59:55;95188.25;;;-1.25
76347;BMP280;65171;48.378;10.010;2022-12-11T15:02:32;95206.34;;;-1.33
76347;BMP280;65171;48.378;10.010;2022-12-11T15:05:18;95201.06;;;-1.40
76347;BMP280;65171;48.378;10.010;2022-12-11T15:13:25;95196.84;;;-1.54
76347;BMP280;65171;48.378;10.010;2022-12-11T15:15:51;95200.13;;;-1.46
76347;BMP280;65171;48.378;10.010;2022-12-11T15:20:50;95226.03;;;-1.74
76347;BMP280;65171;48.378;10.010;2022-12-11T15:23:17;95206.63;;;-1.62
76347;BMP280;65171;48.378;10.010;2022-12-11T15:25:49;95223.94;;;-1.70
76347;BMP280;65171;48.378;10.010;2022-12-11T15:28:25;95221.00;;;-1.76
76347;BMP280;65171;48.378;10.010;2022-12-11T15:30:56;95220.38;;;-1.71